Fort Madison, Iowa
Current Conditions -  °F | °C
As of 1:35 PM on Thursday 27 Nov 2014 (Local Time) from KFSW Reporting Station
Clear Clear  
Wind Chill:   Ceiling: Unl
Heat Index: 18°   Visibility: 10mi
Dew Point: 10°   Wind: 9mph
Humidity: 73%   Direction: 310°NW
Pressure: 30.48"   Gusts: NA
Location:  40.63°N, 91.33°W
Report Text: KFSW 271935Z AUTO 31008KT 10SM CLR M08/M12 A3048 RMK AO2
Loading
Personal Weather Stations






























Interactive Weather Map New forecast layout! Learn more

10-Day Weather Forecast

Advertisements
Track Severe Weather on mobile